Time;durP1;ratioP1;P1;durP2;ratioP2;P2;SDS_P1;SDS_P2;PMS_P1;PMS_P2;Temp;Humidity;BMP_temperature;BMP_pressure;BME280_temperature;BME280_humidity;BME280_pressure;Samples;Min_cycle;Max_cycle;Signal;HPM_P1;HPM_P2
2021/12/09 00:07:43;;;;;;;64.38;27.90;;;9.70;57.80;;;;;;5033112;28;20069;-87
2021/12/09 00:10:51;;;;;;;61.10;28.70;;;9.40;58.30;;;;;;5030898;28;20026;-90
2021/12/09 00:13:37;;;;;;;63.03;29.80;;;9.10;58.70;;;;;;5032488;28;20038;-91
2021/12/09 00:16:06;;;;;;;60.25;29.25;;;9.10;59.30;;;;;;5032423;28;20021;-92
2021/12/09 00:18:54;;;;;;;66.75;29.52;;;8.70;59.40;;;;;;5013815;28;20013;-90
2021/12/09 00:21:48;;;;;;;63.30;29.40;;;8.40;60.40;;;;;;5036568;28;20026;-87
2021/12/09 00:24:29;;;;;;;61.30;28.77;;;8.20;60.80;;;;;;5036542;28;20034;-84
2021/12/09 00:27:30;;;;;;;60.83;29.48;;;7.80;61.80;;;;;;5036979;28;20030;-86
2021/12/09 00:30:24;;;;;;;58.85;27.48;;;7.90;62.40;;;;;;5023031;28;20026;-91
2021/12/09 00:32:54;;;;;;;63.70;28.10;;;8.10;61.40;;;;;;5034499;28;20109;-89
2021/12/09 00:38:54;;;;;;;60.45;27.73;;;8.50;60.40;;;;;;5035455;28;20017;-87
2021/12/09 00:41:39;;;;;;;63.17;28.20;;;8.40;61.00;;;;;;5035211;28;20021;-92
2021/12/09 00:44:28;;;;;;;60.85;28.10;;;8.60;60.40;;;;;;5037669;28;20078;-93
2021/12/09 00:46:54;;;;;;;59.53;27.23;;;8.80;60.00;;;;;;5036791;28;20033;-89
2021/12/09 00:49:22;;;;;;;55.88;26.88;;;8.90;59.80;;;;;;5036352;28;20042;-87
2021/12/09 00:52:25;;;;;;;59.47;28.15;;;9.10;59.70;;;;;;5036548;28;20095;-85
2021/12/09 00:55:35;;;;;;;57.78;26.27;;;9.30;59.30;;;;;;5035092;28;20010;-95
2021/12/09 00:58:24;;;;;;;56.72;26.15;;;9.00;59.10;;;;;;5036522;28;20021;-91
2021/12/09 01:01:26;;;;;;;59.55;26.30;;;9.00;59.40;;;;;;5036156;28;20030;-92
2021/12/09 01:04:13;;;;;;;62.00;28.60;;;9.10;59.30;;;;;;5033420;28;20018;-93
2021/12/09 01:06:39;;;;;;;67.75;28.42;;;9.00;59.80;;;;;;5027454;28;20058;-92
2021/12/09 01:09:05;;;;;;;62.80;27.33;;;9.00;59.50;;;;;;5030477;28;20116;-89
2021/12/09 01:11:31;;;;;;;62.97;27.48;;;9.10;59.60;;;;;;5014556;28;20036;-94
2021/12/09 01:13:57;;;;;;;58.85;26.52;;;8.70;60.10;;;;;;5032364;28;20093;-93
2021/12/09 01:16:40;;;;;;;54.65;25.58;;;8.40;60.60;;;;;;5030529;28;20026;-94
2021/12/09 01:19:18;;;;;;;65.30;27.58;;;8.40;60.80;;;;;;5035523;28;20025;-91
2021/12/09 01:21:45;;;;;;;55.67;26.63;;;8.40;60.50;;;;;;5031667;28;20022;-94
2021/12/09 01:24:10;;;;;;;59.72;25.30;;;8.30;60.80;;;;;;5036795;28;20029;-88
2021/12/09 01:26:36;;;;;;;63.58;27.27;;;8.30;61.10;;;;;;5037177;28;20026;-92
2021/12/09 01:29:36;;;;;;;58.20;24.95;;;8.20;61.20;;;;;;5041099;28;20017;-84
2021/12/09 01:32:12;;;;;;;61.38;25.25;;;8.20;61.70;;;;;;5040154;28;20034;-87
2021/12/09 01:34:44;;;;;;;56.15;26.27;;;8.20;61.70;;;;;;5037237;28;20069;-87
2021/12/09 01:37:12;;;;;;;59.78;25.42;;;8.10;62.10;;;;;;5038825;28;20073;-92
2021/12/09 01:39:41;;;;;;;63.72;25.65;;;8.30;61.40;;;;;;5013067;28;20038;-94
2021/12/09 01:42:20;;;;;;;64.00;26.77;;;8.40;61.00;;;;;;5014703;28;20037;-85
2021/12/09 01:45:41;;;;;;;61.92;25.25;;;8.60;61.00;;;;;;5016612;28;20026;-89
2021/12/09 01:48:08;;;;;;;55.22;23.90;;;8.60;60.60;;;;;;5013883;28;20022;-94
2021/12/09 01:50:35;;;;;;;70.15;27.20;;;8.70;60.50;;;;;;5031396;28;20012;-94
2021/12/09 01:53:03;;;;;;;62.55;26.42;;;8.80;59.90;;;;;;5009392;28;20129;-91
2021/12/09 01:55:31;;;;;;;61.58;26.95;;;8.40;60.50;;;;;;5004600;28;20397;-92
2021/12/09 01:57:56;;;;;;;65.65;28.10;;;7.80;62.20;;;;;;5008364;28;20022;-93
2021/12/09 02:00:26;;;;;;;61.33;26.45;;;7.50;63.40;;;;;;5026283;28;20026;-92
2021/12/09 02:02:52;;;;;;;54.35;24.50;;;7.60;63.60;;;;;;5022646;28;20041;-93
2021/12/09 02:05:23;;;;;;;57.08;25.00;;;7.50;63.30;;;;;;5025928;28;20030;-94
2021/12/09 02:07:52;;;;;;;65.75;26.58;;;7.70;63.20;;;;;;5029741;28;20042;-89
2021/12/09 02:11:04;;;;;;;55.20;24.25;;;7.60;63.00;;;;;;5027077;28;20457;-93
2021/12/09 02:13:57;;;;;;;57.85;26.38;;;7.30;64.10;;;;;;5033120;28;20097;-86
2021/12/09 02:16:41;;;;;;;52.80;25.00;;;7.60;63.10;;;;;;5029111;28;20053;-93
2021/12/09 02:19:20;;;;;;;52.63;23.65;;;7.50;62.60;;;;;;5030324;28;20056;-92
2021/12/09 02:21:46;;;;;;;55.53;24.75;;;7.60;63.10;;;;;;5010386;28;20035;-93
2021/12/09 02:24:16;;;;;;;51.10;22.55;;;7.50;63.40;;;;;;5012058;28;20027;-93
2021/12/09 02:27:03;;;;;;;56.70;25.27;;;7.70;62.80;;;;;;5015429;28;20034;-94
2021/12/09 02:29:29;;;;;;;57.05;25.80;;;7.80;62.20;;;;;;5026557;28;20113;-94
2021/12/09 02:31:57;;;;;;;56.75;25.50;;;7.60;63.00;;;;;;5021168;28;20061;-93
2021/12/09 02:34:23;;;;;;;51.78;24.38;;;7.50;63.40;;;;;;5025742;28;20033;-93
2021/12/09 02:36:51;;;;;;;55.42;24.88;;;7.50;63.60;;;;;;5004092;28;20069;-91
2021/12/09 02:39:19;;;;;;;52.63;25.48;;;7.40;63.60;;;;;;5033014;28;20050;-96
2021/12/09 02:41:51;;;;;;;52.50;25.73;;;7.60;63.30;;;;;;5036402;28;20034;-91
2021/12/09 02:44:38;;;;;;;54.40;26.10;;;7.90;63.00;;;;;;5030291;28;20025;-90
2021/12/09 02:47:04;;;;;;;52.25;24.10;;;8.00;62.40;;;;;;5033784;28;20021;-92
2021/12/09 02:49:40;;;;;;;54.75;25.13;;;8.10;61.70;;;;;;5013619;28;20038;-94
2021/12/09 02:52:08;;;;;;;56.05;25.05;;;7.90;62.10;;;;;;5034845;28;20033;-92
2021/12/09 02:54:34;;;;;;;61.55;26.25;;;8.00;62.70;;;;;;5034215;28;20034;-93
2021/12/09 02:57:09;;;;;;;62.50;25.92;;;8.20;61.90;;;;;;5012894;28;20018;-94
2021/12/09 02:59:36;;;;;;;56.10;25.88;;;8.30;61.30;;;;;;5013859;28;20045;-89
2021/12/09 03:02:06;;;;;;;51.55;24.48;;;8.30;61.70;;;;;;5012172;28;20026;-95
2021/12/09 03:04:48;;;;;;;;;;;8.20;61.80;;;;;;5011513;28;20037;-92
2021/12/09 03:07:47;;;;;;;56.15;24.88;;;8.10;61.90;;;;;;5041550;28;19921;-89
2021/12/09 03:10:24;;;;;;;55.55;23.80;;;7.80;62.60;;;;;;5030956;28;20098;-94
2021/12/09 03:13:00;;;;;;;59.38;26.05;;;7.80;63.00;;;;;;5028062;28;20041;-91
2021/12/09 03:15:27;;;;;;;63.90;27.95;;;7.80;62.80;;;;;;5023371;28;20022;-92
2021/12/09 03:17:53;;;;;;;60.95;26.38;;;7.80;63.00;;;;;;5002874;28;20132;-92
2021/12/09 03:20:20;;;;;;;54.28;26.20;;;7.70;62.80;;;;;;5017363;28;20061;-92
2021/12/09 03:22:48;;;;;;;57.97;26.83;;;7.70;62.90;;;;;;5019887;28;20026;-92
2021/12/09 03:25:15;;;;;;;56.97;25.15;;;7.80;63.10;;;;;;5020886;28;20029;-92
2021/12/09 03:27:42;;;;;;;56.03;25.65;;;8.10;62.20;;;;;;5020469;28;20052;-94
2021/12/09 03:30:10;;;;;;;54.35;25.30;;;8.40;61.40;;;;;;5016478;28;20390;-93
2021/12/09 03:32:38;;;;;;;60.40;28.63;;;8.20;61.70;;;;;;5003964;28;20038;-93
2021/12/09 03:35:05;;;;;;;57.00;26.10;;;8.10;62.20;;;;;;5002626;28;20053;-93
2021/12/09 03:37:32;;;;;;;58.00;26.30;;;8.00;62.20;;;;;;5017891;28;20450;-95
2021/12/09 03:39:58;;;;;;;57.38;25.65;;;8.00;63.00;;;;;;5031674;28;20034;-92
2021/12/09 03:42:27;;;;;;;54.55;25.00;;;8.10;62.40;;;;;;5024101;28;20263;-91
2021/12/09 03:44:54;;;;;;;54.20;25.52;;;8.30;61.60;;;;;;5016144;28;20033;-93
2021/12/09 03:47:23;;;;;;;54.83;25.08;;;8.40;61.40;;;;;;5016605;28;20109;-92
2021/12/09 03:49:50;;;;;;;49.58;24.48;;;8.50;61.10;;;;;;5017379;28;20030;-93
2021/12/09 03:52:16;;;;;;;50.28;24.38;;;8.20;61.70;;;;;;5018431;28;20052;-91
2021/12/09 03:54:43;;;;;;;52.50;25.58;;;8.20;61.80;;;;;;5017613;28;20034;-94
2021/12/09 03:57:15;;;;;;;51.58;24.35;;;8.20;61.80;;;;;;5018471;28;20029;-93
2021/12/09 03:59:43;;;;;;;51.13;24.48;;;8.40;61.80;;;;;;5017693;28;20026;-90
2021/12/09 04:02:09;;;;;;;55.72;24.83;;;8.40;61.10;;;;;;5018197;28;20033;-92
2021/12/09 04:04:35;;;;;;;54.90;24.83;;;8.20;61.40;;;;;;5016376;28;20125;-91
2021/12/09 04:07:02;;;;;;;49.58;23.73;;;8.00;61.90;;;;;;5022304;28;20054;-93
2021/12/09 04:09:28;;;;;;;51.33;24.17;;;8.00;62.50;;;;;;5020175;28;20029;-92
2021/12/09 04:11:54;;;;;;;50.50;22.77;;;8.10;61.90;;;;;;5018132;28;20041;-93
2021/12/09 04:14:22;;;;;;;49.17;22.58;;;8.30;61.70;;;;;;5017424;28;20029;-91
2021/12/09 04:16:54;;;;;;;47.92;22.77;;;8.60;60.80;;;;;;5015003;28;20149;-91
2021/12/09 04:19:20;;;;;;;41.47;20.80;;;9.00;60.10;;;;;;5016068;28;20420;-93
2021/12/09 04:21:46;;;;;;;39.00;18.73;;;9.10;59.80;;;;;;5024377;28;20049;-92
2021/12/09 04:24:15;;;;;;;39.58;18.20;;;9.00;59.50;;;;;;5017526;28;20373;-93
2021/12/09 04:26:45;;;;;;;32.60;16.50;;;9.00;59.70;;;;;;5014189;28;20111;-94
2021/12/09 04:29:12;;;;;;;36.10;17.83;;;8.90;59.70;;;;;;5016827;28;20026;-93
2021/12/09 04:31:47;;;;;;;36.60;17.83;;;9.00;59.40;;;;;;5022489;28;20042;-94
2021/12/09 04:34:13;;;;;;;32.65;16.65;;;9.10;59.60;;;;;;5024621;28;20029;-94
2021/12/09 04:36:39;;;;;;;34.65;16.73;;;9.10;59.30;;;;;;5027586;28;20045;-94
2021/12/09 04:39:07;;;;;;;32.25;15.70;;;9.40;59.10;;;;;;5020203;28;20061;-93
2021/12/09 04:41:33;;;;;;;34.15;17.33;;;9.50;58.30;;;;;;4997069;28;20026;-93
2021/12/09 04:43:59;;;;;;;28.90;15.45;;;9.40;58.50;;;;;;5006532;28;20033;-93
2021/12/09 04:46:26;;;;;;;33.75;16.27;;;9.20;58.60;;;;;;5002109;28;20034;-91
2021/12/09 04:48:52;;;;;;;33.22;16.83;;;9.20;58.70;;;;;;5011813;28;20113;-93
2021/12/09 04:51:18;;;;;;;31.65;15.95;;;9.10;58.80;;;;;;5016395;28;20377;-94
2021/12/09 04:53:44;;;;;;;29.05;15.32;;;9.10;59.30;;;;;;5016422;28;20030;-93
2021/12/09 04:56:09;;;;;;;29.17;15.20;;;9.00;59.00;;;;;;5018133;28;20018;-93
2021/12/09 04:58:35;;;;;;;29.98;15.38;;;8.90;59.20;;;;;;5021030;28;20124;-92
2021/12/09 05:01:04;;;;;;;30.20;15.27;;;8.40;59.70;;;;;;5029963;28;20462;-92
2021/12/09 05:03:31;;;;;;;27.15;14.02;;;8.20;60.80;;;;;;5029889;28;20025;-95
2021/12/09 05:05:57;;;;;;;27.83;14.85;;;8.40;60.50;;;;;;5025146;28;20030;-93
2021/12/09 05:08:27;;;;;;;29.40;14.90;;;8.50;60.10;;;;;;5024146;28;20030;-93
2021/12/09 05:13:53;;;;;;;24.05;13.32;;;8.30;60.90;;;;;;4961612;29;20116;-92
2021/12/09 05:16:19;;;;;;;28.40;14.63;;;8.80;59.80;;;;;;4944761;29;20043;-94
2021/12/09 05:18:45;;;;;;;29.60;15.38;;;8.80;59.30;;;;;;4944076;29;20109;-91
2021/12/09 05:21:21;;;;;;;26.25;13.68;;;8.70;59.80;;;;;;4954196;29;20023;-93
2021/12/09 05:23:53;;;;;;;25.95;13.77;;;8.80;59.70;;;;;;4955052;29;20612;-88
2021/12/09 05:26:32;;;;;;;30.42;14.85;;;8.50;59.50;;;;;;4969371;29;20058;-92
2021/12/09 05:28:57;;;;;;;29.55;14.90;;;8.70;60.10;;;;;;4949200;29;20018;-90
2021/12/09 05:34:10;;;;;;;27.52;14.55;;;8.90;59.50;;;;;;4960229;29;20077;-92
2021/12/09 05:36:36;;;;;;;32.95;15.82;;;8.90;59.20;;;;;;4941459;29;20059;-91
2021/12/09 05:39:05;;;;;;;28.17;15.23;;;8.80;60.20;;;;;;4941581;29;20031;-94
2021/12/09 05:41:32;;;;;;;26.85;14.75;;;9.00;59.00;;;;;;4941071;29;20051;-92
2021/12/09 05:44:00;;;;;;;30.02;14.77;;;9.30;58.70;;;;;;4941450;29;20477;-93
2021/12/09 05:46:26;;;;;;;32.55;15.82;;;9.40;58.40;;;;;;4942345;29;20117;-90
2021/12/09 05:48:52;;;;;;;30.80;15.85;;;9.20;58.70;;;;;;4942071;29;20055;-95
2021/12/09 05:51:42;;;;;;;32.33;15.65;;;9.10;58.80;;;;;;4998247;28;20030;-92
2021/12/09 05:54:09;;;;;;;31.08;15.13;;;9.10;59.10;;;;;;5021377;28;20033;-92
2021/12/09 05:56:35;;;;;;;31.63;16.20;;;9.00;59.10;;;;;;5016508;28;20033;-94
2021/12/09 05:59:02;;;;;;;31.15;15.95;;;8.90;59.30;;;;;;5019966;28;20065;-93
2021/12/09 06:01:28;;;;;;;29.88;14.35;;;9.00;59.60;;;;;;5014419;28;20049;-87
2021/12/09 06:03:54;;;;;;;31.13;16.38;;;9.00;58.90;;;;;;5001322;28;20080;-92
2021/12/09 06:06:20;;;;;;;31.52;16.55;;;8.90;59.60;;;;;;5008688;28;20561;-93
2021/12/09 06:08:46;;;;;;;33.58;15.95;;;8.80;59.70;;;;;;5001069;28;20022;-85
2021/12/09 06:11:12;;;;;;;35.95;17.48;;;8.70;60.10;;;;;;5016002;28;20088;-87
2021/12/09 06:13:50;;;;;;;32.95;16.80;;;8.70;60.10;;;;;;5000382;28;20042;-93
2021/12/09 06:16:16;;;;;;;34.60;17.33;;;8.80;59.70;;;;;;5018025;28;20033;-94
2021/12/09 06:18:42;;;;;;;32.50;16.08;;;8.80;59.80;;;;;;5015965;28;20038;-90
2021/12/09 06:21:08;;;;;;;30.00;16.50;;;8.90;59.70;;;;;;5016512;28;20029;-86
2021/12/09 06:23:35;;;;;;;35.65;17.33;;;8.90;59.40;;;;;;5015472;28;20440;-92
2021/12/09 06:26:01;;;;;;;31.75;15.68;;;9.00;59.30;;;;;;5000292;28;20114;-91
2021/12/09 06:28:28;;;;;;;32.58;15.75;;;8.90;59.40;;;;;;5015425;28;20453;-89
2021/12/09 06:30:55;;;;;;;34.38;16.42;;;8.70;59.60;;;;;;5019109;28;20042;-91
2021/12/09 06:33:21;;;;;;;31.85;16.13;;;8.50;60.30;;;;;;5002486;28;20037;-90
2021/12/09 06:37:46;;;;;;;31.83;15.80;;;8.40;60.10;;;;;;5093589;27;20390;-91
2021/12/09 06:40:19;;;;;;;31.52;15.80;;;8.80;60.30;;;;;;5069573;28;20023;-93
2021/12/09 06:42:45;;;;;;;31.08;16.20;;;9.10;59.10;;;;;;5077785;28;20060;-91
2021/12/09 06:45:12;;;;;;;31.88;15.77;;;9.40;59.10;;;;;;5080854;28;20025;-95
2021/12/09 06:47:39;;;;;;;33.72;17.15;;;9.50;58.10;;;;;;5073214;28;20052;-91
2021/12/09 06:50:07;;;;;;;30.52;14.60;;;9.20;58.60;;;;;;5056165;28;20052;-92
2021/12/09 06:52:33;;;;;;;28.67;14.05;;;8.80;59.30;;;;;;5077877;28;20028;-94
2021/12/09 06:55:00;;;;;;;28.95;14.40;;;8.60;59.90;;;;;;5078456;28;20035;-92
2021/12/09 06:57:27;;;;;;;32.55;15.85;;;8.60;59.70;;;;;;5073877;28;20055;-91
2021/12/09 06:59:53;;;;;;;39.83;18.38;;;8.50;60.00;;;;;;5067437;28;20167;-94
2021/12/09 07:02:18;;;;;;;32.75;16.35;;;8.50;59.90;;;;;;5056082;28;20079;-89
2021/12/09 07:04:44;;;;;;;31.65;16.20;;;8.70;59.50;;;;;;5047814;28;20106;-92
2021/12/09 07:07:10;;;;;;;36.40;17.00;;;8.40;59.80;;;;;;5052939;28;20502;-94
2021/12/09 07:09:37;;;;;;;44.42;20.85;;;7.80;60.20;;;;;;5053001;28;20028;-92
2021/12/09 07:12:04;;;;;;;40.90;19.40;;;7.40;61.90;;;;;;5052816;28;20062;-91
2021/12/09 07:14:30;;;;;;;39.88;18.00;;;7.10;62.50;;;;;;5052678;28;20066;-92
2021/12/09 07:16:56;;;;;;;39.42;19.23;;;6.80;63.50;;;;;;5036291;28;20070;-95
2021/12/09 07:19:21;;;;;;;38.63;17.33;;;6.60;63.90;;;;;;5053161;28;20055;-95
2021/12/09 07:21:47;;;;;;;46.00;21.48;;;6.50;64.10;;;;;;5052839;28;20525;-94
2021/12/09 07:24:13;;;;;;;40.80;20.75;;;6.60;64.20;;;;;;5052779;28;20075;-91
2021/12/09 07:26:39;;;;;;;38.80;19.33;;;6.50;64.10;;;;;;5052624;28;20028;-93
2021/12/09 07:29:05;;;;;;;36.88;17.85;;;6.40;64.10;;;;;;5053168;28;20134;-93
2021/12/09 07:31:31;;;;;;;34.88;17.52;;;6.40;64.20;;;;;;5053332;28;20028;-94
2021/12/09 07:33:57;;;;;;;40.63;18.42;;;5.90;65.00;;;;;;5053374;28;20021;-93
2021/12/09 07:36:24;;;;;;;38.33;19.25;;;5.50;66.40;;;;;;5036496;28;20126;-93
2021/12/09 07:38:51;;;;;;;39.65;18.85;;;5.60;66.50;;;;;;5052991;28;20450;-92
2021/12/09 07:41:17;;;;;;;38.42;18.38;;;5.90;65.60;;;;;;5052839;28;20024;-94
2021/12/09 07:43:45;;;;;;;35.15;18.25;;;6.10;64.50;;;;;;5052772;28;20017;-95
2021/12/09 07:46:11;;;;;;;36.60;19.63;;;6.00;65.40;;;;;;5053149;28;20123;-95
2021/12/09 07:48:37;;;;;;;38.63;19.42;;;6.00;65.20;;;;;;5042705;28;20108;-94
2021/12/09 07:51:05;;;;;;;41.13;21.23;;;5.90;65.30;;;;;;5039852;28;20506;-94
2021/12/09 07:53:31;;;;;;;37.47;19.27;;;6.00;65.20;;;;;;5040222;28;20025;-95
2021/12/09 07:55:56;;;;;;;40.38;19.75;;;6.10;64.70;;;;;;5039463;28;20392;-92
2021/12/09 07:58:22;;;;;;;41.80;20.77;;;6.30;64.70;;;;;;5039390;28;20102;-94
2021/12/09 08:00:49;;;;;;;39.45;19.27;;;6.30;64.30;;;;;;5039959;28;20068;-90
2021/12/09 08:03:16;;;;;;;38.22;19.20;;;6.10;64.40;;;;;;5039711;28;20474;-93
2021/12/09 08:05:44;;;;;;;37.72;19.38;;;6.10;64.90;;;;;;5039551;28;20021;-93
2021/12/09 08:08:11;;;;;;;35.50;18.60;;;6.10;64.80;;;;;;5040386;28;20039;-93
2021/12/09 08:10:37;;;;;;;35.88;17.45;;;6.10;64.60;;;;;;5040216;28;20021;-91
2021/12/09 08:13:04;;;;;;;38.20;19.50;;;6.00;64.80;;;;;;5057589;28;20098;-92
2021/12/09 08:15:38;;;;;;;36.13;18.48;;;6.00;64.60;;;;;;5038826;28;20021;-90
2021/12/09 08:20:40;;;;;;;40.72;18.42;;;6.10;64.40;;;;;;5056903;28;20384;-93
2021/12/09 08:23:06;;;;;;;34.40;17.92;;;6.10;64.70;;;;;;5039407;28;20036;-93
2021/12/09 08:25:31;;;;;;;36.03;18.55;;;6.10;64.70;;;;;;5040278;28;20205;-93
2021/12/09 08:27:58;;;;;;;40.75;19.38;;;6.10;64.70;;;;;;5039413;28;20033;-94
2021/12/09 08:30:25;;;;;;;37.53;19.23;;;5.90;64.80;;;;;;5040296;28;20108;-94
2021/12/09 08:32:52;;;;;;;36.22;18.30;;;5.90;65.20;;;;;;5039854;28;20032;-93
2021/12/09 08:35:19;;;;;;;35.13;17.33;;;6.00;64.80;;;;;;5023548;28;20036;-93
2021/12/09 08:37:46;;;;;;;33.92;18.42;;;6.00;64.60;;;;;;5038710;28;20041;-94
2021/12/09 08:40:13;;;;;;;38.70;20.10;;;5.90;65.40;;;;;;5039744;28;20021;-96
2021/12/09 08:42:39;;;;;;;38.00;18.33;;;6.10;65.40;;;;;;5039899;28;20116;-92
2021/12/09 08:45:08;;;;;;;38.92;18.33;;;6.40;64.00;;;;;;5038938;28;20033;-95
2021/12/09 08:47:35;;;;;;;43.13;17.77;;;6.40;63.90;;;;;;5038641;28;20116;-93
2021/12/09 08:50:01;;;;;;;36.40;17.55;;;6.30;64.00;;;;;;5038215;28;20484;-96
2021/12/09 08:52:26;;;;;;;35.25;17.88;;;6.40;64.20;;;;;;5037906;28;20025;-92
2021/12/09 08:54:52;;;;;;;37.08;17.42;;;6.60;63.60;;;;;;5037606;28;20032;-95
2021/12/09 08:57:20;;;;;;;36.72;18.30;;;6.70;63.40;;;;;;5037976;28;20039;-91
2021/12/09 08:59:45;;;;;;;35.38;16.98;;;6.90;62.80;;;;;;5036239;28;20021;-90
2021/12/09 09:02:12;;;;;;;35.92;17.30;;;6.90;62.50;;;;;;5038863;28;20031;-91
2021/12/09 09:04:38;;;;;;;33.55;16.17;;;6.60;63.40;;;;;;5038318;28;20027;-90
2021/12/09 09:07:06;;;;;;;35.00;17.27;;;6.30;64.10;;;;;;5039299;28;20120;-89
2021/12/09 09:09:34;;;;;;;35.38;16.83;;;6.00;64.60;;;;;;5037635;28;20104;-93
2021/12/09 09:12:03;;;;;;;33.40;16.90;;;5.90;65.40;;;;;;5037841;28;20056;-88
2021/12/09 09:14:29;;;;;;;31.10;16.10;;;5.80;65.50;;;;;;5038596;28;20061;-93
2021/12/09 09:16:55;;;;;;;35.53;16.63;;;5.80;65.70;;;;;;5039240;28;20060;-95
2021/12/09 09:19:21;;;;;;;31.45;15.75;;;6.00;65.20;;;;;;5044800;28;20025;-93
2021/12/09 09:21:47;;;;;;;33.35;16.42;;;6.70;64.00;;;;;;5042491;28;20058;-96
2021/12/09 09:24:14;;;;;;;31.85;16.52;;;7.20;62.20;;;;;;5042865;28;20049;-92
2021/12/09 09:26:41;;;;;;;33.03;15.82;;;7.50;61.10;;;;;;5040593;28;20098;-96
2021/12/09 09:29:11;;;;;;;34.13;17.23;;;7.40;61.50;;;;;;5049689;28;20028;-96
2021/12/09 09:32:01;;;;;;;29.80;15.40;;;7.90;60.80;;;;;;5060207;28;20036;-96
2021/12/09 09:34:27;;;;;;;31.10;17.00;;;8.10;60.20;;;;;;5046993;28;20029;-94
2021/12/09 09:36:53;;;;;;;31.33;16.05;;;8.10;59.70;;;;;;5040206;28;20136;-94
2021/12/09 09:39:21;;;;;;;30.95;16.15;;;7.90;60.30;;;;;;5043392;28;20082;-93
2021/12/09 09:42:17;;;;;;;35.50;17.88;;;8.10;60.00;;;;;;5038780;28;20097;-96
2021/12/09 09:44:48;;;;;;;31.02;17.58;;;8.10;60.00;;;;;;5051783;28;20013;-96
2021/12/09 09:47:21;;;;;;;29.67;14.90;;;8.70;59.30;;;;;;5050724;28;20097;-96
2021/12/09 09:50:10;;;;;;;29.95;15.60;;;8.90;58.50;;;;;;5056615;28;20015;-93
2021/12/09 09:52:39;;;;;;;32.83;16.23;;;8.90;59.00;;;;;;5052613;28;20057;-94
2021/12/09 09:55:29;;;;;;;33.50;16.63;;;8.80;59.10;;;;;;5053719;28;20030;-96
2021/12/09 09:57:56;;;;;;;30.95;15.70;;;8.90;59.00;;;;;;5049417;28;20136;-90
2021/12/09 10:00:39;;;;;;;32.15;15.90;;;9.10;58.50;;;;;;5041717;28;20021;-90
2021/12/09 10:03:29;;;;;;;30.77;16.00;;;8.80;59.00;;;;;;5047683;28;20029;-96
2021/12/09 10:06:02;;;;;;;;;;;9.10;58.70;;;;;;5047543;28;20480;-91
2021/12/09 10:08:32;;;;;;;29.08;15.65;;;9.20;58.30;;;;;;5050161;28;19956;-94
2021/12/09 10:10:58;;;;;;;30.17;16.80;;;9.10;58.40;;;;;;5049211;28;20030;-95
2021/12/09 10:13:37;;;;;;;32.42;15.65;;;9.10;58.80;;;;;;5053815;28;20039;-93
2021/12/09 10:16:45;;;;;;;30.92;15.40;;;9.20;58.50;;;;;;5050198;28;20025;-94
2021/12/09 10:19:22;;;;;;;31.48;16.25;;;9.30;58.80;;;;;;5046894;28;20079;-95
2021/12/09 10:21:49;;;;;;;33.90;16.65;;;9.60;58.70;;;;;;5042454;28;20029;-93
2021/12/09 10:24:16;;;;;;;33.05;17.33;;;9.40;58.50;;;;;;5048426;28;20077;-94
2021/12/09 10:27:06;;;;;;;30.83;15.65;;;9.40;59.10;;;;;;5037001;28;20053;-95
2021/12/09 10:29:45;;;;;;;32.75;17.20;;;9.50;58.90;;;;;;5049464;28;20029;-96
2021/12/09 10:32:19;;;;;;;28.77;16.05;;;9.80;59.10;;;;;;5028990;28;20034;-96
2021/12/09 10:34:47;;;;;;;33.15;17.08;;;9.80;58.60;;;;;;5038027;28;20029;-95
2021/12/09 10:37:21;;;;;;;36.53;19.48;;;9.80;58.50;;;;;;5035924;28;20045;-95
2021/12/09 10:39:55;;;;;;;31.55;16.55;;;10.10;58.90;;;;;;5032806;28;20093;-95
2021/12/09 10:42:28;;;;;;;33.08;16.25;;;10.50;58.50;;;;;;5032317;28;20027;-95
2021/12/09 10:45:00;;;;;;;34.75;17.27;;;10.70;57.60;;;;;;5032525;28;20102;-95
2021/12/09 10:51:25;;;;;;;37.38;17.02;;;10.10;58.60;;;;;;5083948;27;1431968;-95
2021/12/09 10:53:51;;;;;;;32.70;17.98;;;9.90;59.70;;;;;;5095167;28;20024;-93
2021/12/09 10:56:30;;;;;;;33.70;17.50;;;9.70;60.20;;;;;;5096170;28;20081;-94
2021/12/09 10:58:56;;;;;;;36.92;18.23;;;9.60;60.00;;;;;;5095661;28;20047;-95
2021/12/09 11:01:26;;;;;;;34.75;17.90;;;9.70;60.30;;;;;;5094083;28;20378;-93
2021/12/09 11:04:02;;;;;;;33.90;18.80;;;9.70;60.50;;;;;;5093314;28;20024;-93
2021/12/09 11:06:37;;;;;;;35.95;19.05;;;10.20;59.60;;;;;;5093276;28;20043;-93
2021/12/09 11:09:12;;;;;;;33.25;18.83;;;10.50;59.40;;;;;;5093403;28;20020;-92
2021/12/09 11:11:43;;;;;;;35.28;19.13;;;10.40;58.90;;;;;;5094148;28;20024;-90
2021/12/09 11:14:13;;;;;;;32.83;17.95;;;10.00;59.60;;;;;;5093658;28;20016;-96
2021/12/09 11:16:46;;;;;;;34.78;17.73;;;9.90;60.00;;;;;;5093210;28;20032;-95
2021/12/09 11:19:14;;;;;;;34.40;17.88;;;9.60;60.70;;;;;;5093429;28;20532;-91
2021/12/09 11:21:45;;;;;;;34.95;19.15;;;9.70;61.00;;;;;;5093098;28;20096;-92
2021/12/09 11:24:15;;;;;;;34.78;19.00;;;10.00;60.10;;;;;;5093002;28;20042;-92
2021/12/09 11:29:43;;;;;;;33.25;17.92;;;10.00;59.90;;;;;;5111134;28;20505;-92
2021/12/09 11:39:57;;;;;;;32.85;17.38;;;9.50;60.90;;;;;;5111131;28;20047;-92
2021/12/09 11:42:31;;;;;;;32.00;16.75;;;9.80;60.50;;;;;;5092674;28;20526;-93
2021/12/09 11:44:57;;;;;;;34.83;17.73;;;9.80;59.50;;;;;;5092621;28;20034;-93
2021/12/09 11:47:23;;;;;;;34.72;17.17;;;10.00;59.50;;;;;;5092395;28;20107;-93
2021/12/09 11:49:51;;;;;;;37.47;19.95;;;10.10;58.80;;;;;;5089287;28;20059;-94
2021/12/09 11:52:20;;;;;;;34.67;17.10;;;9.90;59.00;;;;;;5089984;28;20024;-95
2021/12/09 11:55:06;;;;;;;33.47;17.08;;;9.10;60.40;;;;;;5089622;28;20456;-93
2021/12/09 11:57:41;;;;;;;32.60;16.80;;;8.80;62.10;;;;;;5088925;28;20025;-92
2021/12/09 12:06:48;;;;;;;36.28;19.23;;;10.40;58.90;;;;;;5076377;28;20058;-95
2021/12/09 12:12:41;;;;;;;37.40;17.30;;;9.60;59.30;;;;;;5077324;28;20036;-93
2021/12/09 12:15:28;;;;;;;33.60;18.33;;;8.80;61.00;;;;;;5075097;28;20395;-93
2021/12/09 12:29:34;;;;;;;37.92;20.08;;;9.00;61.90;;;;;;5076100;28;20024;-93
2021/12/09 12:37:50;;;;;;;37.30;18.80;;;9.20;61.70;;;;;;5075880;28;20084;-92
2021/12/09 12:40:27;;;;;;;37.58;19.90;;;9.00;62.00;;;;;;5075097;28;20056;-91
2021/12/09 12:43:07;;;;;;;41.10;21.38;;;9.00;62.30;;;;;;5074765;28;20433;-92
2021/12/09 12:49:19;;;;;;;37.88;18.88;;;9.70;60.30;;;;;;5075683;28;20035;-90
2021/12/09 12:51:29;;;;;;;42.08;20.30;;;10.10;59.70;;;;;;5084512;28;20059;-89
2021/12/09 12:54:27;;;;;;;64.28;30.63;;;9.90;59.60;;;;;;5077948;28;20032;-91
2021/12/09 12:57:00;;;;;;;57.58;28.20;;;9.00;61.50;;;;;;5077788;28;20039;-91
2021/12/09 12:59:35;;;;;;;92.78;36.38;;;8.80;63.70;;;;;;5077422;28;20028;-91
2021/12/09 13:02:09;;;;;;;54.95;26.73;;;9.30;61.90;;;;;;5077443;28;20074;-91
2021/12/09 13:04:54;;;;;;;75.22;30.98;;;9.00;62.50;;;;;;5077407;28;20054;-91
2021/12/09 13:10:26;;;;;;;117.13;49.92;;;10.00;60.00;;;;;;5095394;28;20040;-89
2021/12/09 13:13:01;;;;;;;72.82;31.58;;;10.40;59.30;;;;;;5076271;28;20404;-88
2021/12/09 13:15:37;;;;;;;52.05;26.45;;;10.50;59.20;;;;;;5077592;28;20442;-90
2021/12/09 13:18:06;;;;;;;45.33;22.85;;;10.00;59.40;;;;;;5077585;28;20451;-90
2021/12/09 13:20:37;;;;;;;44.20;21.90;;;8.90;62.40;;;;;;5077173;28;20054;-89
2021/12/09 13:23:24;;;;;;;46.25;23.02;;;8.00;64.70;;;;;;5077148;28;20020;-90
2021/12/09 13:26:16;;;;;;;50.22;24.20;;;8.30;65.30;;;;;;5077285;28;20024;-90
2021/12/09 13:29:19;;;;;;;62.65;32.22;;;9.20;63.00;;;;;;5077671;28;20035;-88
2021/12/09 13:34:30;;;;;;;63.80;29.10;;;10.30;59.60;;;;;;5095058;28;20020;-87
2021/12/09 13:37:29;;;;;;;66.97;29.65;;;10.50;59.10;;;;;;5076567;28;20036;-86
2021/12/09 13:48:15;;;;;;;65.57;34.63;;;10.30;59.30;;;;;;5094892;28;20093;-86
2021/12/09 13:50:57;;;;;;;76.30;40.08;;;10.60;58.40;;;;;;5075951;28;20077;-86
2021/12/09 13:56:09;;;;;;;90.00;48.65;;;10.60;58.30;;;;;;5094920;28;20039;-87
2021/12/09 13:58:35;;;;;;;84.78;42.88;;;10.50;58.50;;;;;;5076084;28;20028;-87
2021/12/09 14:01:01;;;;;;;78.57;41.03;;;10.20;59.30;;;;;;5076074;28;20024;-86
2021/12/09 14:03:27;;;;;;;78.05;35.45;;;10.30;58.80;;;;;;5076327;28;20026;-86
2021/12/09 14:06:04;;;;;;;64.18;33.20;;;10.40;58.60;;;;;;5076156;28;20053;-87
2021/12/09 14:08:36;;;;;;;63.33;32.00;;;10.30;59.20;;;;;;5076023;28;20047;-87
2021/12/09 14:11:32;;;;;;;65.05;32.45;;;10.40;58.90;;;;;;5075978;28;20042;-87
2021/12/09 14:14:09;;;;;;;85.60;44.28;;;10.10;58.70;;;;;;5076727;28;20577;-86
2021/12/09 14:16:54;;;;;;;75.35;39.78;;;9.60;60.60;;;;;;5075916;28;20020;-86
2021/12/09 14:21:55;;;;;;;59.72;29.75;;;9.60;60.40;;;;;;5093850;28;20419;-86
2021/12/09 14:24:24;;;;;;;63.50;29.40;;;9.60;60.60;;;;;;5075349;28;20475;-85